createdAt,value
2018-07-19T00:03:29.507Z,22.20
2018-07-19T00:05:59.336Z,22.20
2018-07-19T00:08:29.279Z,22.20
2018-07-19T00:10:59.663Z,22.20
2018-07-19T00:13:29.713Z,21.70
2018-07-19T00:18:29.027Z,21.80
2018-07-19T00:20:58.943Z,21.80
2018-07-19T00:23:28.710Z,21.50
2018-07-19T00:25:58.756Z,21.60
2018-07-19T00:28:28.662Z,21.50
2018-07-19T00:30:58.556Z,21.30
2018-07-19T00:36:31.495Z,21.50
2018-07-19T00:39:01.233Z,21.50
2018-07-19T00:41:31.321Z,21.40
2018-07-19T00:44:01.214Z,21.40
2018-07-19T00:46:32.105Z,21.40
2018-07-19T00:49:01.862Z,21.30
2018-07-19T00:51:31.684Z,21.30
2018-07-19T00:54:01.534Z,21.00
2018-07-19T00:56:31.500Z,21.20
2018-07-19T01:01:30.692Z,20.80
2018-07-19T01:04:00.511Z,20.90
2018-07-19T01:06:30.391Z,21.00
2018-07-19T01:09:00.156Z,21.10
2018-07-19T01:11:30.193Z,21.20
2018-07-19T01:13:59.923Z,21.10
2018-07-19T01:18:59.611Z,20.70
2018-07-19T01:21:29.348Z,20.80
2018-07-19T01:24:04.883Z,20.70
2018-07-19T01:29:04.180Z,20.90
2018-07-19T01:31:33.977Z,20.90
2018-07-19T01:34:04.859Z,20.80
2018-07-19T01:36:38.081Z,20.80
2018-07-19T01:39:12.626Z,20.80
2018-07-19T01:42:20.740Z,20.80
2018-07-19T01:44:51.621Z,20.70
2018-07-19T01:47:23.368Z,20.30
2018-07-19T01:49:53.880Z,20.20
2018-07-19T01:52:26.060Z,20.20
2018-07-19T01:54:58.416Z,20.30
2018-07-19T01:57:29.863Z,20.20
2018-07-19T01:59:59.649Z,19.90
2018-07-19T02:02:33.155Z,20.10
2018-07-19T02:05:04.332Z,20.30
2018-07-19T02:07:37.399Z,20.30
2018-07-19T02:10:08.736Z,20.30
2018-07-19T02:12:39.552Z,20.00
2018-07-19T02:15:09.481Z,20.00
2018-07-19T02:17:40.383Z,20.00
2018-07-19T02:22:42.976Z,20.10
2018-07-19T02:25:14.201Z,20.10
2018-07-19T02:27:46.153Z,20.00
2018-07-19T02:30:19.208Z,20.00
2018-07-19T02:32:51.108Z,20.00
2018-07-19T02:35:22.238Z,20.00
2018-07-19T02:37:54.215Z,19.80
2018-07-19T02:40:25.954Z,19.90
2018-07-19T02:42:57.400Z,19.80
2018-07-19T02:45:29.408Z,19.60
2018-07-19T02:48:01.316Z,19.50
2018-07-19T02:50:31.643Z,19.70
2018-07-19T02:53:02.472Z,19.70
2018-07-19T02:55:34.975Z,19.80
2018-07-19T02:58:06.707Z,19.60
2018-07-19T03:05:42.932Z,19.40
2018-07-19T03:08:12.854Z,19.20
2018-07-19T03:10:44.277Z,19.40
2018-07-19T03:13:16.029Z,19.30
2018-07-19T03:15:45.896Z,19.40
2018-07-19T03:18:20.135Z,19.20
2018-07-19T03:20:52.519Z,19.10
2018-07-19T03:23:24.016Z,19.00
2018-07-19T03:25:53.985Z,19.20
2018-07-19T03:28:23.807Z,19.20
2018-07-19T03:30:53.804Z,19.00
2018-07-19T03:33:25.574Z,19.00
2018-07-19T03:35:55.441Z,19.10
2018-07-19T03:38:25.531Z,19.20
2018-07-19T03:40:55.502Z,19.10
2018-07-19T03:43:25.482Z,18.90
2018-07-19T03:45:55.703Z,19.00
2018-07-19T03:48:25.568Z,19.00
2018-07-19T03:50:55.293Z,19.00
2018-07-19T03:53:25.479Z,19.00
2018-07-19T03:55:55.275Z,19.10
2018-07-19T04:01:00.294Z,18.70
2018-07-19T04:03:30.212Z,18.70
2018-07-19T04:08:29.335Z,19.00
2018-07-19T04:10:59.860Z,19.00
2018-07-19T04:16:11.125Z,19.20
2018-07-19T04:18:41.133Z,19.30
2018-07-19T04:21:10.909Z,19.40
2018-07-19T04:23:41.229Z,19.30
2018-07-19T04:26:11.409Z,19.40
2018-07-19T04:28:41.289Z,19.50
2018-07-19T04:31:11.032Z,19.80
2018-07-19T04:33:40.787Z,19.90
2018-07-19T04:36:10.582Z,20.20
2018-07-19T04:38:41.344Z,20.10
2018-07-19T04:43:50.442Z,19.60
2018-07-19T04:46:20.799Z,19.90
2018-07-19T04:48:51.952Z,20.00
2018-07-19T04:51:21.777Z,19.70
2018-07-19T04:53:53.048Z,20.00
2018-07-19T04:56:22.809Z,19.90
2018-07-19T04:58:54.105Z,20.30
2018-07-19T05:01:24.449Z,20.40
2018-07-19T05:03:54.322Z,20.70
2018-07-19T05:06:24.098Z,21.10
2018-07-19T05:14:05.737Z,21.90
2018-07-19T05:16:36.003Z,21.90
2018-07-19T05:19:06.034Z,21.90
2018-07-19T05:21:35.789Z,22.10
2018-07-19T05:24:09.169Z,22.40
2018-07-19T05:26:40.104Z,22.40
2018-07-19T05:29:10.389Z,22.60
2018-07-19T05:31:40.402Z,22.50
2018-07-19T05:34:10.535Z,22.70
2018-07-19T05:36:40.364Z,22.70
2018-07-19T05:39:12.428Z,22.90
2018-07-19T05:41:42.701Z,23.00
2018-07-19T05:46:48.248Z,22.70
2018-07-19T05:49:18.102Z,22.00
2018-07-19T05:51:48.001Z,22.40
2018-07-19T05:54:17.916Z,22.80
2018-07-19T05:56:47.786Z,23.20
2018-07-19T05:59:17.739Z,23.50
2018-07-19T06:01:49.028Z,23.70
2018-07-19T06:04:18.910Z,23.70
2018-07-19T06:09:18.055Z,23.90
2018-07-19T06:11:47.782Z,24.20
2018-07-19T06:14:17.596Z,24.20
2018-07-19T06:16:49.468Z,24.40
2018-07-19T06:19:19.178Z,24.60
2018-07-19T06:21:48.842Z,24.10
2018-07-19T06:24:19.526Z,24.60
2018-07-19T06:26:57.087Z,24.80
2018-07-19T06:29:26.940Z,25.10
2018-07-19T06:31:57.828Z,24.60
2018-07-19T06:34:29.081Z,23.70
2018-07-19T06:36:59.253Z,24.20
2018-07-19T06:39:29.941Z,24.70
2018-07-19T06:42:00.448Z,24.40
2018-07-19T06:46:59.476Z,24.50
2018-07-19T06:49:30.027Z,25.10
2018-07-19T06:52:00.012Z,25.00
2018-07-19T06:54:30.032Z,25.30
2018-07-19T06:56:59.816Z,25.50
2018-07-19T06:59:29.723Z,25.70
2018-07-19T07:02:03.106Z,26.20
2018-07-19T07:04:33.399Z,26.50
2018-07-19T07:07:03.124Z,26.80
2018-07-19T07:09:32.833Z,26.80
2018-07-19T07:12:02.527Z,26.40
2018-07-19T07:14:32.591Z,26.60
2018-07-19T07:17:02.695Z,26.10
2018-07-19T07:22:01.818Z,25.90
2018-07-19T07:24:32.186Z,25.90
2018-07-19T07:27:01.935Z,26.40
2018-07-19T07:29:31.669Z,26.40
2018-07-19T07:32:01.429Z,26.80
2018-07-19T07:37:00.557Z,26.50
2018-07-19T07:39:30.434Z,26.60
2018-07-19T07:42:00.314Z,27.00
2018-07-19T07:44:30.063Z,27.20
2018-07-19T07:46:59.797Z,27.00
2018-07-19T07:49:29.513Z,27.30
2018-07-19T07:52:00.135Z,27.50
2018-07-19T07:54:30.463Z,27.70
2018-07-19T07:59:44.826Z,27.50
2018-07-19T08:02:15.054Z,27.50
2018-07-19T08:04:44.954Z,27.70
2018-07-19T08:07:15.248Z,27.70
2018-07-19T08:09:44.989Z,27.60
2018-07-19T08:12:14.645Z,27.80
2018-07-19T08:14:44.394Z,27.30
2018-07-19T08:17:14.232Z,27.50
2018-07-19T08:19:43.958Z,27.20
2018-07-19T08:22:13.911Z,27.00
2018-07-19T08:24:43.661Z,27.60
2018-07-19T08:27:13.364Z,27.90
2018-07-19T08:29:43.065Z,28.30
2018-07-19T08:32:12.951Z,28.30
2018-07-19T08:34:42.675Z,27.90
2018-07-19T08:37:12.432Z,28.10
2018-07-19T08:39:42.223Z,28.20
2018-07-19T08:42:11.921Z,28.10
2018-07-19T08:44:41.611Z,28.00
2018-07-19T08:47:14.466Z,28.10
2018-07-19T08:49:46.444Z,28.40
2018-07-19T08:52:17.041Z,28.90
2018-07-19T08:57:17.248Z,28.90
2018-07-19T08:59:46.949Z,28.80
2018-07-19T09:02:16.670Z,28.80
2018-07-19T09:04:47.936Z,28.80
2018-07-19T09:07:17.598Z,29.20
2018-07-19T09:09:47.315Z,29.00
2018-07-19T09:12:17.067Z,29.30
2018-07-19T09:14:47.445Z,29.50
2018-07-19T09:17:17.244Z,29.50
2018-07-19T09:19:47.239Z,29.50
2018-07-19T09:22:16.921Z,29.50
2018-07-19T09:24:46.766Z,29.80
2018-07-19T09:27:16.475Z,29.90
2018-07-19T09:32:21.368Z,29.60
2018-07-19T09:34:51.052Z,29.90
2018-07-19T09:42:31.513Z,30.10
2018-07-19T09:45:02.513Z,30.10
2018-07-19T09:47:33.141Z,30.30
2018-07-19T09:50:02.847Z,30.30
2018-07-19T09:52:32.480Z,30.00
2018-07-19T09:55:03.623Z,30.20
2018-07-19T09:57:33.357Z,30.40
2018-07-19T10:00:04.248Z,30.30
2018-07-19T10:02:33.923Z,30.40
2018-07-19T10:05:03.583Z,30.50
2018-07-19T10:07:33.277Z,30.50
2018-07-19T10:10:02.925Z,30.30
2018-07-19T10:12:32.576Z,30.20
2018-07-19T10:15:03.806Z,30.50
2018-07-19T10:17:33.477Z,30.80
2018-07-19T10:20:03.162Z,30.50
2018-07-19T10:22:32.781Z,30.40
2018-07-19T10:25:02.393Z,30.30
2018-07-19T10:27:32.091Z,30.70
2018-07-19T10:30:01.747Z,30.50
2018-07-19T10:32:31.415Z,30.40
2018-07-19T10:35:01.109Z,30.90
2018-07-19T10:37:30.771Z,30.90
2018-07-19T10:40:00.837Z,31.10
2018-07-19T10:42:30.714Z,31.10
2018-07-19T10:45:00.363Z,31.20
2018-07-19T10:49:59.275Z,31.30
2018-07-19T10:52:29.004Z,30.80
2018-07-19T10:54:59.653Z,31.20
2018-07-19T10:57:29.415Z,31.10
2018-07-19T10:59:59.172Z,31.50
2018-07-19T11:02:28.895Z,31.30
2018-07-19T11:04:58.552Z,31.70
2018-07-19T11:07:28.306Z,32.20
2018-07-19T11:09:58.054Z,31.90
2018-07-19T11:12:27.681Z,31.70
2018-07-19T11:14:57.421Z,31.90
2018-07-19T11:17:27.084Z,31.50
2018-07-19T11:19:56.750Z,31.50
2018-07-19T11:22:26.455Z,31.80
2018-07-19T11:30:07.084Z,32.10
2018-07-19T11:32:36.718Z,32.20
2018-07-19T11:35:06.392Z,32.20
2018-07-19T11:40:11.110Z,31.80
2018-07-19T11:42:40.725Z,31.90
2018-07-19T11:45:10.368Z,31.80
2018-07-19T11:52:46.737Z,32.70
2018-07-19T11:55:16.950Z,32.60
2018-07-19T11:57:46.901Z,32.70
2018-07-19T12:00:17.045Z,32.50
2018-07-19T12:02:46.932Z,31.90
2018-07-19T12:05:17.052Z,32.20
2018-07-19T12:10:16.837Z,32.60
2018-07-19T12:12:47.026Z,33.00
2018-07-19T12:15:17.164Z,33.30
2018-07-19T12:17:47.250Z,33.00
2018-07-19T12:20:17.122Z,33.10
2018-07-19T12:22:47.589Z,32.60
2018-07-19T12:25:17.576Z,33.00
2018-07-19T12:27:47.521Z,33.10
2018-07-19T12:30:17.585Z,33.10
2018-07-19T12:32:47.575Z,32.90
2018-07-19T12:35:17.692Z,33.30
2018-07-19T12:37:47.597Z,33.00
2018-07-19T12:40:18.118Z,33.00
2018-07-19T12:42:47.983Z,32.90
2018-07-19T12:45:17.855Z,32.90
2018-07-19T12:47:47.740Z,33.10
2018-07-19T12:50:17.691Z,32.70
2018-07-19T12:52:47.801Z,32.70
2018-07-19T12:55:17.857Z,33.10
2018-07-19T12:57:47.820Z,33.20
2018-07-19T13:00:17.862Z,33.20
2018-07-19T13:02:47.777Z,33.10
2018-07-19T13:05:17.951Z,32.70
2018-07-19T13:07:47.929Z,32.70
2018-07-19T13:10:18.023Z,33.20
2018-07-19T13:12:47.964Z,33.20
2018-07-19T13:15:18.019Z,32.90
2018-07-19T13:17:47.951Z,32.90
2018-07-19T13:20:18.039Z,32.70
2018-07-19T13:22:47.981Z,33.20
2018-07-19T13:25:18.021Z,33.10
2018-07-19T13:27:47.978Z,33.20
2018-07-19T13:30:17.991Z,33.20
2018-07-19T13:32:48.119Z,33.20
2018-07-19T13:35:18.477Z,33.60
2018-07-19T13:37:49.152Z,33.80
2018-07-19T13:40:19.023Z,33.60
2018-07-19T13:42:48.781Z,33.90
2018-07-19T13:45:18.632Z,33.90
2018-07-19T13:47:48.415Z,33.70
2018-07-19T13:50:18.356Z,33.30
2018-07-19T13:52:59.553Z,33.20
2018-07-19T13:55:29.356Z,33.20
2018-07-19T13:57:59.067Z,33.60
2018-07-19T14:00:28.824Z,33.40
2018-07-19T14:02:58.699Z,33.80
2018-07-19T14:05:28.326Z,33.50
2018-07-19T14:07:58.106Z,33.60
2018-07-19T14:10:27.961Z,33.20
2018-07-19T14:12:57.648Z,32.70
2018-07-19T14:15:27.481Z,33.30
2018-07-19T14:17:57.264Z,33.30
2018-07-19T14:20:26.963Z,33.60
2018-07-19T14:22:56.625Z,33.60
2018-07-19T14:25:26.449Z,33.50
2018-07-19T14:27:56.298Z,33.70
2018-07-19T14:30:26.010Z,34.30
2018-07-19T14:32:55.706Z,34.30
2018-07-19T14:35:25.424Z,33.80
2018-07-19T14:37:55.169Z,33.70
2018-07-19T14:40:25.993Z,34.10
2018-07-19T14:42:55.814Z,34.30
2018-07-19T14:45:25.516Z,34.00
2018-07-19T14:47:55.318Z,33.80
2018-07-19T14:50:25.080Z,33.50
2018-07-19T14:52:54.812Z,33.90
2018-07-19T15:00:23.122Z,33.90
2018-07-19T15:02:53.216Z,34.10
2018-07-19T15:05:22.928Z,34.40
2018-07-19T15:07:52.593Z,34.20
2018-07-19T15:10:22.263Z,34.10
2018-07-19T15:12:51.891Z,34.00
2018-07-19T15:15:21.702Z,34.10
2018-07-19T15:17:51.456Z,34.50
2018-07-19T15:20:21.144Z,34.10
2018-07-19T15:22:52.231Z,34.30
2018-07-19T15:25:22.015Z,34.50
2018-07-19T15:27:51.730Z,34.50
2018-07-19T15:30:21.445Z,34.50
2018-07-19T15:32:51.560Z,34.40
2018-07-19T15:35:22.331Z,34.10
2018-07-19T15:37:52.073Z,34.30
2018-07-19T15:40:22.601Z,34.30
2018-07-19T15:42:53.123Z,33.90
2018-07-19T15:45:22.956Z,34.00
2018-07-19T15:47:54.189Z,34.20
2018-07-19T15:50:23.992Z,34.30
2018-07-19T15:52:53.683Z,34.20
2018-07-19T15:55:23.412Z,34.10
2018-07-19T16:00:23.289Z,34.20
2018-07-19T16:02:53.107Z,33.30
2018-07-19T16:05:23.073Z,33.30
2018-07-19T16:07:52.796Z,33.40
2018-07-19T16:12:51.760Z,33.90
2018-07-19T16:15:21.436Z,33.60
2018-07-19T16:17:51.228Z,32.80
2018-07-19T16:20:20.875Z,33.00
2018-07-19T16:22:50.537Z,33.60
2018-07-19T16:25:20.320Z,33.80
2018-07-19T16:27:50.069Z,33.90
2018-07-19T16:30:19.836Z,33.90
2018-07-19T16:32:49.556Z,33.10
2018-07-19T16:35:19.254Z,33.00
2018-07-19T16:37:52.645Z,33.00
2018-07-19T16:40:22.299Z,33.00
2018-07-19T16:42:53.837Z,32.80
2018-07-19T16:45:23.536Z,32.90
2018-07-19T16:47:53.483Z,32.40
2018-07-19T16:50:23.358Z,32.10
2018-07-19T16:52:59.733Z,31.80
2018-07-19T16:55:29.498Z,32.10
2018-07-19T16:57:59.208Z,32.30
2018-07-19T17:00:30.743Z,32.00
2018-07-19T17:03:00.994Z,31.80
2018-07-19T17:05:30.713Z,31.80
2018-07-19T17:08:00.389Z,31.60
2018-07-19T17:10:30.160Z,32.20
2018-07-19T17:12:59.982Z,34.50
2018-07-19T17:15:29.939Z,35.70
2018-07-19T17:17:59.721Z,36.20
2018-07-19T17:20:30.308Z,37.30
2018-07-19T17:23:00.558Z,37.80
2018-07-19T17:25:30.311Z,36.40
2018-07-19T17:28:00.161Z,35.10
2018-07-19T17:30:29.904Z,33.20
2018-07-19T17:32:59.653Z,32.00
2018-07-19T17:35:29.525Z,31.60
2018-07-19T17:37:59.261Z,31.20
2018-07-19T17:40:34.975Z,30.50
2018-07-19T17:43:04.728Z,30.30
2018-07-19T17:45:34.549Z,30.60
2018-07-19T17:48:04.434Z,30.50
2018-07-19T17:50:34.204Z,30.00
2018-07-19T17:53:04.069Z,30.00
2018-07-19T17:55:33.992Z,30.10
2018-07-19T17:58:03.870Z,29.80
2018-07-19T18:00:34.236Z,29.90
2018-07-19T18:03:04.116Z,29.90
2018-07-19T18:05:34.247Z,29.20
2018-07-19T18:08:04.003Z,29.10
2018-07-19T18:10:33.799Z,29.10
2018-07-19T18:13:03.664Z,28.70
2018-07-19T18:15:33.484Z,28.50
2018-07-19T18:18:03.478Z,28.50
2018-07-19T18:23:26.577Z,28.20
2018-07-19T18:25:56.423Z,28.20
2018-07-19T18:28:26.135Z,27.90
2018-07-19T18:30:56.686Z,28.00
2018-07-19T18:36:01.442Z,27.60
2018-07-19T18:38:31.273Z,27.80
2018-07-19T18:43:36.028Z,27.60
2018-07-19T18:46:05.823Z,27.40
2018-07-19T18:48:35.619Z,27.00
2018-07-19T18:53:41.964Z,26.90
2018-07-19T18:56:11.741Z,26.40
2018-07-19T18:58:41.668Z,26.60
2018-07-19T19:01:12.269Z,26.60
2018-07-19T19:03:42.075Z,26.50
2018-07-19T19:06:19.044Z,26.30
2018-07-19T19:08:42.827Z,26.30
2018-07-19T19:11:12.826Z,26.00
2018-07-19T19:13:42.914Z,26.10
2018-07-19T19:16:13.660Z,25.90
2018-07-19T19:18:53.298Z,25.80
2018-07-19T19:21:23.044Z,25.70
2018-07-19T19:23:52.869Z,25.30
2018-07-19T19:28:51.927Z,25.20
2018-07-19T19:31:22.510Z,25.30
2018-07-19T19:33:52.224Z,25.10
2018-07-19T19:36:21.977Z,25.20
2018-07-19T19:38:51.928Z,24.90
2018-07-19T19:41:21.654Z,25.10
2018-07-19T19:43:51.361Z,25.10
2018-07-19T19:46:21.604Z,24.60
2018-07-19T19:48:51.378Z,24.00
2018-07-19T19:51:24.126Z,24.40
2018-07-19T19:53:54.643Z,24.50
2018-07-19T19:56:24.326Z,24.60
2018-07-19T19:58:54.092Z,24.50
2018-07-19T20:01:23.855Z,24.30
2018-07-19T20:03:54.288Z,24.10
2018-07-19T20:08:53.333Z,24.30
2018-07-19T20:11:23.162Z,24.10
2018-07-19T20:13:52.925Z,23.80
2018-07-19T20:18:51.890Z,23.70
2018-07-19T20:21:21.660Z,23.90
2018-07-19T20:26:20.672Z,23.80
2018-07-19T20:28:50.502Z,23.40
2018-07-19T20:31:20.330Z,23.50
2018-07-19T20:33:50.049Z,23.20
2018-07-19T20:36:19.818Z,23.30
2018-07-19T20:38:49.647Z,23.30
2018-07-19T20:41:19.449Z,23.10
2018-07-19T20:43:49.424Z,23.10
2018-07-19T20:46:19.263Z,23.20
2018-07-19T20:48:52.919Z,23.20
2018-07-19T20:51:22.640Z,22.80
2018-07-19T20:53:53.013Z,23.00
2018-07-19T20:58:52.301Z,22.80
2018-07-19T21:03:57.246Z,22.80
2018-07-19T21:06:26.976Z,22.50
2018-07-19T21:08:56.659Z,22.80
2018-07-19T21:11:26.392Z,22.80
2018-07-19T21:13:56.103Z,22.80
2018-07-19T21:16:25.838Z,22.60
2018-07-19T21:18:55.649Z,22.50
2018-07-19T21:21:25.388Z,22.50
2018-07-19T21:23:55.119Z,22.40
2018-07-19T21:26:24.821Z,21.90
2018-07-19T21:28:54.530Z,21.90
2018-07-19T21:31:24.269Z,21.90
2018-07-19T21:33:53.961Z,21.90
2018-07-19T21:36:23.654Z,22.10
2018-07-19T21:38:53.377Z,21.90
2018-07-19T21:41:23.120Z,21.70
2018-07-19T21:43:52.846Z,21.60
2018-07-19T21:46:22.611Z,21.80
2018-07-19T21:48:52.314Z,22.00
2018-07-19T21:51:22.018Z,21.70
2018-07-19T21:53:51.748Z,21.60
2018-07-19T21:56:21.455Z,21.50
2018-07-19T21:58:51.256Z,21.60
2018-07-19T22:01:21.097Z,21.40
2018-07-19T22:03:50.872Z,21.20
2018-07-19T22:08:49.927Z,21.40
2018-07-19T22:11:19.638Z,21.40
2018-07-19T22:13:49.452Z,21.30
2018-07-19T22:16:19.130Z,21.10
2018-07-19T22:18:48.863Z,21.30
2018-07-19T22:21:18.598Z,21.40
2018-07-19T22:23:48.516Z,21.30
2018-07-19T22:26:18.537Z,21.10
2018-07-19T22:28:48.262Z,21.20
2018-07-19T22:33:47.751Z,21.30
2018-07-19T22:36:17.708Z,21.20
2018-07-19T22:38:47.583Z,21.00
2018-07-19T22:41:17.300Z,21.20
2018-07-19T22:46:16.641Z,21.30
2018-07-19T22:48:47.093Z,21.30
2018-07-19T22:51:17.486Z,20.90
2018-07-19T22:53:47.136Z,20.80
2018-07-19T22:58:46.858Z,20.50
2018-07-19T23:01:17.276Z,20.70
2018-07-19T23:03:47.069Z,20.50
2018-07-19T23:06:17.299Z,20.60
2018-07-19T23:08:47.648Z,20.80
2018-07-19T23:11:17.372Z,20.70
2018-07-19T23:13:47.322Z,20.60
2018-07-19T23:18:52.103Z,20.70
2018-07-19T23:21:21.833Z,20.40
2018-07-19T23:26:20.753Z,20.60
2018-07-19T23:31:19.880Z,20.60
2018-07-19T23:33:49.623Z,20.70
2018-07-19T23:36:23.873Z,20.50
2018-07-19T23:39:01.170Z,20.20
2018-07-19T23:41:52.879Z,20.10
2018-07-19T23:44:29.559Z,19.90
2018-07-19T23:47:03.200Z,20.20
2018-07-19T23:49:32.919Z,20.20
2018-07-19T23:52:02.608Z,20.20
2018-07-19T23:54:32.407Z,20.20
2018-07-19T23:57:02.124Z,20.00
